Time;durP1;ratioP1;P1;durP2;ratioP2;P2;SDS_P1;SDS_P2;PMS_P1;PMS_P2;Temp;Humidity;BMP_temperature;BMP_pressure;BME280_temperature;BME280_humidity;BME280_pressure;Samples;Min_cycle;Max_cycle;Signal;HPM_P1;HPM_P2
2022/04/28 00:00:49;;;;;;;12.52;7.53;;;;;;;6.13;75.44;102818.28;5042985;28;20037;-64
2022/04/28 00:03:14;;;;;;;15.60;8.57;;;;;;;6.11;74.65;102818.44;5041893;28;20053;-64
2022/04/28 00:05:40;;;;;;;18.73;9.23;;;;;;;6.11;75.00;102812.97;5042178;28;20039;-64
2022/04/28 00:08:06;;;;;;;13.25;7.95;;;;;;;6.13;75.35;102823.72;5044162;28;20111;-64
2022/04/28 00:10:33;;;;;;;14.32;8.15;;;;;;;6.05;75.73;102831.84;5041341;28;20067;-63
2022/04/28 00:13:00;;;;;;;17.17;8.40;;;;;;;6.04;75.82;102832.84;5043583;28;20024;-64
2022/04/28 00:15:26;;;;;;;17.75;8.80;;;;;;;6.02;75.76;102830.25;5042659;28;20510;-64
2022/04/28 00:17:51;;;;;;;13.27;8.32;;;;;;;5.96;75.93;102834.44;5043146;28;20033;-64
2022/04/28 00:20:16;;;;;;;14.35;8.60;;;;;;;5.90;76.34;102829.56;5039517;28;20044;-64
2022/04/28 00:22:42;;;;;;;13.35;7.90;;;;;;;5.89;76.44;102830.59;5040380;28;20108;-65
2022/04/28 00:25:08;;;;;;;15.50;8.52;;;;;;;5.82;76.61;102829.47;5043085;28;20025;-65
2022/04/28 00:27:33;;;;;;;15.60;8.18;;;;;;;5.76;76.96;102827.34;5042529;28;20028;-64
2022/04/28 00:29:58;;;;;;;16.73;8.57;;;;;;;5.69;77.34;102832.53;5041248;28;20064;-64
2022/04/28 00:32:24;;;;;;;14.68;8.27;;;;;;;5.66;77.41;102830.09;5043495;28;20464;-64
2022/04/28 00:34:49;;;;;;;13.18;8.23;;;;;;;5.65;77.15;102824.81;5041426;28;20035;-64
2022/04/28 00:37:15;;;;;;;14.95;8.50;;;;;;;5.65;78.02;102830.25;5043252;28;20021;-65
2022/04/28 00:39:41;;;;;;;18.23;8.63;;;;;;;5.55;77.82;102835.75;5043415;28;20357;-64
2022/04/28 00:42:13;;;;;;;16.33;8.40;;;;;;;5.47;78.14;102827.44;5039739;28;20032;-64
2022/04/28 00:44:39;;;;;;;12.80;8.45;;;;;;;5.47;78.29;102824.72;5043245;28;20128;-64
2022/04/28 00:47:05;;;;;;;14.55;8.55;;;;;;;5.45;78.00;102824.03;5043281;28;20107;-64
2022/04/28 00:52:15;;;;;;;14.23;8.82;;;;;;;5.42;78.13;102830.66;5042048;28;20114;-64
2022/04/28 00:54:42;;;;;;;15.38;8.93;;;;;;;5.45;78.40;102824.03;5041840;28;20460;-64
2022/04/28 00:57:07;;;;;;;16.20;8.80;;;;;;;5.42;78.17;102833.38;5042930;28;20053;-64
2022/04/28 00:59:33;;;;;;;17.00;9.43;;;;;;;5.48;78.07;102829.19;5040492;28;20037;-64
2022/04/28 01:01:58;;;;;;;14.57;8.38;;;;;;;5.48;78.11;102823.75;5041378;28;20110;-64
2022/04/28 01:04:23;;;;;;;14.48;8.23;;;;;;;5.50;77.68;102823.59;5041392;28;20021;-64
2022/04/28 01:06:51;;;;;;;14.35;9.18;;;;;;;5.40;77.92;102819.03;5041610;28;20431;-64
2022/04/28 01:09:16;;;;;;;16.85;9.13;;;;;;;5.39;78.33;102822.75;5042668;28;20075;-64
2022/04/28 01:11:42;;;;;;;14.60;8.93;;;;;;;5.34;78.43;102826.94;5035974;28;20029;-64
2022/04/28 01:14:07;;;;;;;15.77;8.70;;;;;;;5.32;78.66;102829.81;5037084;28;20119;-63
2022/04/28 01:16:32;;;;;;;15.07;8.32;;;;;;;5.32;78.37;102828.94;5041699;28;20037;-64
2022/04/28 01:18:59;;;;;;;17.58;9.05;;;;;;;5.30;78.42;102828.22;5042235;28;20363;-64
2022/04/28 01:21:24;;;;;;;16.27;9.52;;;;;;;5.24;79.07;102826.97;5040882;28;20032;-64
2022/04/28 01:23:50;;;;;;;15.88;9.63;;;;;;;5.29;77.94;102829.25;5038369;28;20436;-64
2022/04/28 01:26:16;;;;;;;14.30;8.20;;;;;;;5.17;78.29;102832.16;5040478;28;20037;-64
2022/04/28 01:28:41;;;;;;;14.93;9.60;;;;;;;5.14;78.37;102832.44;5042624;28;20052;-64
2022/04/28 01:31:06;;;;;;;15.43;8.75;;;;;;;5.11;78.90;102837.28;5042573;28;20033;-64
2022/04/28 01:33:32;;;;;;;14.35;8.73;;;;;;;5.13;78.99;102830.72;5041507;28;20043;-64
2022/04/28 01:35:58;;;;;;;14.90;9.00;;;;;;;5.08;79.13;102835.75;5039777;28;20108;-64
2022/04/28 01:38:24;;;;;;;15.45;9.52;;;;;;;5.20;78.14;102825.53;5041965;28;20029;-64
2022/04/28 01:40:49;;;;;;;16.23;9.32;;;;;;;5.50;76.51;102829.88;5041328;28;20029;-64
2022/04/28 01:43:14;;;;;;;16.48;9.25;;;;;;;5.43;76.95;102839.69;5042462;28;20352;-64
2022/04/28 01:45:40;;;;;;;14.65;7.18;;;;;;;5.36;77.20;102835.81;5040940;28;20486;-65
2022/04/28 01:48:05;;;;;;;19.58;10.32;;;;;;;5.44;76.37;102833.22;5040431;28;20068;-64
2022/04/28 01:50:30;;;;;;;18.52;10.25;;;;;;;5.27;77.82;102831.25;5040872;28;20039;-64
2022/04/28 01:55:40;;;;;;;16.95;8.10;;;;;;;5.78;75.05;102817.16;5042319;28;20420;-64
2022/04/28 01:58:05;;;;;;;16.85;8.98;;;;;;;5.44;76.49;102828.63;5040944;28;20108;-64
2022/04/28 02:00:32;;;;;;;14.63;8.50;;;;;;;5.56;75.92;102826.56;5040853;28;20446;-64
2022/04/28 02:02:57;;;;;;;15.40;9.38;;;;;;;5.45;76.38;102827.59;5032249;28;20806;-64
2022/04/28 02:05:23;;;;;;;16.48;8.88;;;;;;;5.60;75.78;102832.59;5021285;28;20025;-64
2022/04/28 02:07:48;;;;;;;17.63;9.90;;;;;;;5.33;77.30;102831.53;5022381;28;20029;-63
2022/04/28 02:10:13;;;;;;;20.30;9.98;;;;;;;5.31;77.33;102828.06;5020196;28;20513;-64
2022/04/28 02:12:39;;;;;;;17.52;9.70;;;;;;;5.52;76.43;102829.72;5040640;28;20029;-64
2022/04/28 02:15:04;;;;;;;18.02;9.63;;;;;;;5.21;77.87;102835.41;5042177;28;20045;-64
2022/04/28 02:17:34;;;;;;;19.00;9.10;;;;;;;5.21;77.95;102828.09;5041810;28;20033;-64
2022/04/28 02:20:03;;;;;;;18.95;9.73;;;;;;;5.05;79.02;102833.28;5040630;28;20124;-64
2022/04/28 02:22:29;;;;;;;16.83;10.30;;;;;;;5.02;79.27;102835.44;5039744;28;20071;-64
2022/04/28 02:24:54;;;;;;;18.92;9.73;;;;;;;4.98;79.45;102831.31;5041359;28;20057;-64
2022/04/28 02:27:19;;;;;;;17.98;10.63;;;;;;;4.91;79.80;102837.31;5040660;28;20104;-64
2022/04/28 02:29:45;;;;;;;20.15;10.48;;;;;;;4.88;80.20;102834.91;5042199;28;20037;-64
2022/04/28 02:32:10;;;;;;;17.35;10.15;;;;;;;4.93;79.78;102840.78;5042215;28;20279;-64
2022/04/28 02:34:35;;;;;;;19.10;10.10;;;;;;;4.94;80.02;102841.63;5043062;28;20021;-64
2022/04/28 02:37:01;;;;;;;16.02;9.57;;;;;;;4.89;79.94;102838.47;5045118;28;20056;-64
2022/04/28 02:39:26;;;;;;;16.90;10.77;;;;;;;4.85;80.35;102842.50;5045698;28;20446;-64
2022/04/28 02:41:53;;;;;;;18.73;9.93;;;;;;;4.83;80.55;102839.06;5036931;28;20033;-64
2022/04/28 02:44:18;;;;;;;16.92;10.80;;;;;;;4.81;80.83;102838.34;5043554;28;20079;-64
2022/04/28 02:46:45;;;;;;;16.90;9.52;;;;;;;4.89;79.82;102833.88;5044687;28;20160;-64
2022/04/28 02:49:11;;;;;;;13.10;8.65;;;;;;;5.07;78.79;102827.69;5043128;28;20032;-64
2022/04/28 02:51:36;;;;;;;15.32;10.27;;;;;;;4.87;79.56;102827.75;5044039;28;20021;-64
2022/04/28 02:54:03;;;;;;;16.15;9.93;;;;;;;4.77;79.96;102829.63;5044546;28;20056;-65
2022/04/28 02:56:28;;;;;;;17.58;9.68;;;;;;;4.84;79.72;102829.88;5045050;28;20045;-64
2022/04/28 02:58:54;;;;;;;16.88;10.35;;;;;;;4.90;79.34;102823.84;5043736;28;20635;-64
2022/04/28 03:01:20;;;;;;;17.17;10.70;;;;;;;4.76;79.99;102827.88;5043737;28;20025;-64
2022/04/28 03:03:45;;;;;;;15.60;10.45;;;;;;;5.02;78.69;102825.44;5044487;28;20021;-64
2022/04/28 03:11:38;;;;;;;20.08;11.30;;;;;;;4.80;80.16;102834.75;5044953;28;20072;-64
2022/04/28 03:14:03;;;;;;;19.38;10.98;;;;;;;4.76;80.42;102829.72;5043735;28;20480;-64
2022/04/28 03:16:29;;;;;;;19.85;11.95;;;;;;;4.76;80.35;102832.47;5043902;28;20147;-64
2022/04/28 03:18:54;;;;;;;17.60;10.25;;;;;;;4.85;80.04;102837.03;5044310;28;20048;-64
2022/04/28 03:21:20;;;;;;;15.98;10.15;;;;;;;5.03;79.15;102829.00;5043412;28;20029;-64
2022/04/28 03:23:46;;;;;;;18.80;10.80;;;;;;;4.91;79.41;102833.72;5044880;28;20064;-64
2022/04/28 03:26:11;;;;;;;18.13;11.52;;;;;;;4.69;80.92;102840.34;5044759;28;20416;-64
2022/04/28 03:28:38;;;;;;;19.80;11.32;;;;;;;4.71;80.40;102832.03;5043088;28;20098;-64
2022/04/28 03:31:04;;;;;;;16.92;10.52;;;;;;;4.71;80.71;102837.47;5040998;28;20025;-64
2022/04/28 03:33:29;;;;;;;19.70;11.85;;;;;;;4.57;81.28;102839.63;5043837;28;20754;-64
2022/04/28 03:35:54;;;;;;;18.92;11.70;;;;;;;4.75;80.52;102828.88;5044567;28;20112;-64
2022/04/28 03:38:19;;;;;;;17.50;10.98;;;;;;;4.52;81.38;102836.47;5044453;28;20086;-64
2022/04/28 03:40:45;;;;;;;18.83;11.95;;;;;;;4.50;81.20;102838.47;5042228;28;20375;-64
2022/04/28 03:43:10;;;;;;;18.67;10.68;;;;;;;4.57;81.06;102833.34;5043053;28;20064;-64
2022/04/28 03:45:37;;;;;;;19.55;11.38;;;;;;;4.66;80.48;102837.91;5042497;28;20704;-64
2022/04/28 03:48:03;;;;;;;17.50;11.45;;;;;;;4.41;81.72;102833.91;5043865;28;20039;-64
2022/04/28 03:50:30;;;;;;;17.55;11.07;;;;;;;4.41;81.68;102839.34;5043437;28;20795;-64
2022/04/28 03:52:58;;;;;;;20.15;10.88;;;;;;;4.47;81.24;102832.47;5042690;28;20120;-64
2022/04/28 03:55:24;;;;;;;18.75;11.40;;;;;;;4.37;81.90;102837.91;5042145;28;20041;-64
2022/04/28 03:57:49;;;;;;;19.88;11.15;;;;;;;4.72;80.36;102833.78;5044227;28;20113;-64
2022/04/28 04:00:15;;;;;;;17.98;11.90;;;;;;;4.34;81.99;102838.16;5043930;28;20036;-64
2022/04/28 04:02:40;;;;;;;18.10;10.88;;;;;;;4.26;82.48;102840.72;5043561;28;20113;-64
2022/04/28 04:05:06;;;;;;;19.70;11.45;;;;;;;4.37;81.96;102841.47;5042837;28;20572;-64
2022/04/28 04:07:33;;;;;;;19.98;11.27;;;;;;;4.36;82.05;102839.75;5043180;28;20103;-64
2022/04/28 04:09:59;;;;;;;19.25;11.60;;;;;;;4.37;81.87;102835.19;5044011;28;20032;-64
2022/04/28 04:12:25;;;;;;;20.63;12.18;;;;;;;4.25;82.62;102839.00;5042948;28;20032;-64
2022/04/28 04:14:54;;;;;;;18.02;11.80;;;;;;;4.24;82.68;102848.19;5043608;28;20021;-65
2022/04/28 04:17:19;;;;;;;18.08;11.18;;;;;;;4.57;81.00;102844.22;5041749;28;20032;-65
2022/04/28 04:19:45;;;;;;;17.50;11.55;;;;;;;4.40;81.71;102848.47;5043185;28;20025;-64
2022/04/28 04:22:10;;;;;;;21.70;11.60;;;;;;;4.36;82.02;102852.50;5041539;28;20033;-64
2022/04/28 04:24:35;;;;;;;19.33;12.52;;;;;;;4.19;83.11;102854.03;5044361;28;20510;-64
2022/04/28 04:27:01;;;;;;;20.17;11.93;;;;;;;4.32;82.37;102856.50;5042503;28;20029;-64
2022/04/28 04:29:26;;;;;;;18.88;10.80;;;;;;;4.40;81.72;102849.34;5042532;28;20388;-65
2022/04/28 04:34:35;;;;;;;23.63;12.50;;;;;;;4.26;82.28;102844.31;5042676;28;20071;-64
2022/04/28 04:37:00;;;;;;;21.88;11.40;;;;;;;4.51;81.58;102850.22;5042735;28;20436;-64
2022/04/28 04:39:26;;;;;;;23.30;12.90;;;;;;;4.32;82.71;102857.38;5040105;28;20044;-64
2022/04/28 04:41:51;;;;;;;26.55;13.23;;;;;;;4.09;83.80;102854.00;5042176;28;20373;-65
2022/04/28 04:44:16;;;;;;;19.20;10.80;;;;;;;4.22;83.53;102856.47;5043061;28;20033;-64
2022/04/28 04:46:42;;;;;;;22.08;12.02;;;;;;;4.46;82.32;102864.28;5043097;28;20021;-65
2022/04/28 04:49:08;;;;;;;22.10;13.23;;;;;;;4.13;83.95;102866.31;5039983;28;20028;-64
2022/04/28 04:51:34;;;;;;;23.02;13.88;;;;;;;4.10;84.29;102874.75;5037553;28;20124;-64
2022/04/28 04:53:59;;;;;;;24.05;13.13;;;;;;;4.19;83.81;102872.22;5042783;28;20025;-64
2022/04/28 04:56:24;;;;;;;25.27;13.43;;;;;;;4.14;84.44;102875.34;5041821;28;20044;-64
2022/04/28 04:58:50;;;;;;;22.83;12.07;;;;;;;4.24;84.01;102883.53;5040368;28;20025;-65
2022/04/28 05:01:15;;;;;;;23.67;11.55;;;;;;;4.40;82.80;102875.69;5037424;28;20039;-65
2022/04/28 05:03:41;;;;;;;26.50;12.43;;;;;;;4.29;83.75;102883.97;5037768;28;20029;-65
2022/04/28 05:06:07;;;;;;;25.38;14.23;;;;;;;4.41;83.57;102882.88;5039452;28;20458;-65
2022/04/28 05:08:32;;;;;;;22.48;12.40;;;;;;;4.39;83.43;102884.84;5038819;28;20028;-65
2022/04/28 05:10:57;;;;;;;21.65;13.48;;;;;;;4.37;83.32;102879.56;5040653;28;20063;-65
2022/04/28 05:13:22;;;;;;;21.05;11.32;;;;;;;4.63;82.50;102882.59;5038924;28;20033;-65
2022/04/28 05:15:48;;;;;;;22.48;14.23;;;;;;;4.53;82.82;102887.19;5042365;28;20404;-65
2022/04/28 05:18:13;;;;;;;24.15;13.82;;;;;;;4.49;83.64;102887.59;5041098;28;20086;-65
2022/04/28 05:20:38;;;;;;;21.33;14.13;;;;;;;4.41;84.18;102891.03;5041561;28;20028;-65
2022/04/28 05:23:04;;;;;;;25.85;15.45;;;;;;;4.41;84.76;102893.75;5040772;28;20024;-65
2022/04/28 05:25:30;;;;;;;28.58;14.13;;;;;;;4.63;83.48;102903.53;5041482;28;20368;-65
2022/04/28 05:27:55;;;;;;;21.73;13.25;;;;;;;4.67;83.21;102903.09;5041005;28;20061;-65
2022/04/28 05:30:21;;;;;;;25.70;13.95;;;;;;;4.67;83.70;102905.81;5041510;28;20102;-65
2022/04/28 05:32:46;;;;;;;25.95;12.07;;;;;;;5.00;81.85;102911.84;5036814;28;20184;-65
2022/04/28 05:35:11;;;;;;;23.58;13.50;;;;;;;4.94;82.31;102906.97;5040155;28;20423;-65
2022/04/28 05:37:37;;;;;;;26.27;13.65;;;;;;;5.04;82.13;102912.44;5041507;28;20043;-65
2022/04/28 05:40:05;;;;;;;24.80;14.77;;;;;;;5.14;81.97;102911.41;5041514;28;20090;-64
2022/04/28 05:47:58;;;;;;;27.70;14.57;;;;;;;5.29;81.44;102917.28;5039075;28;20395;-65
2022/04/28 05:50:24;;;;;;;25.17;15.07;;;;;;;5.20;81.95;102924.44;5040264;28;20029;-65
2022/04/28 05:52:49;;;;;;;25.73;13.48;;;;;;;5.49;80.45;102931.75;5038350;28;20028;-66
2022/04/28 05:55:14;;;;;;;31.35;16.02;;;;;;;5.30;81.86;102929.91;5040598;28;20114;-65
2022/04/28 05:57:40;;;;;;;38.03;15.05;;;;;;;5.50;81.04;102936.19;5038169;28;20072;-62
2022/04/28 06:00:06;;;;;;;30.48;16.63;;;;;;;5.40;82.04;102940.78;5040781;28;20032;-65
2022/04/28 06:02:33;;;;;;;21.42;11.52;;;;;;;5.75;80.12;102942.00;5039000;28;20032;-65
2022/04/28 06:05:00;;;;;;;29.10;15.52;;;;;;;5.55;81.64;102942.06;5040666;28;20031;-65
2022/04/28 06:07:25;;;;;;;28.73;14.65;;;;;;;5.57;82.18;102942.75;5042172;28;20033;-65
2022/04/28 06:09:51;;;;;;;22.13;10.73;;;;;;;5.90;79.90;102935.06;5047595;28;20067;-64
2022/04/28 06:12:17;;;;;;;23.02;11.38;;;;;;;6.03;79.45;102943.81;5046997;28;20044;-65
2022/04/28 06:14:42;;;;;;;32.38;16.77;;;;;;;5.82;81.45;102949.44;5047023;28;20025;-65
2022/04/28 06:17:07;;;;;;;28.98;17.52;;;;;;;5.91;80.90;102953.16;5047362;28;20040;-64
2022/04/28 06:19:33;;;;;;;27.15;13.60;;;;;;;6.07;79.67;102955.28;5046453;28;20017;-64
2022/04/28 06:21:59;;;;;;;30.05;17.02;;;;;;;6.04;81.30;102956.47;5046896;28;20710;-64
2022/04/28 06:24:25;;;;;;;25.05;11.52;;;;;;;6.34;78.56;102962.66;5047214;28;20032;-65
2022/04/28 06:26:50;;;;;;;33.35;17.63;;;;;;;6.50;78.72;102955.53;5047202;28;20017;-64
2022/04/28 06:29:16;;;;;;;24.63;13.60;;;;;;;6.65;77.62;102958.59;5047467;28;20021;-65
2022/04/28 06:31:41;;;;;;;22.42;12.07;;;;;;;6.84;76.46;102954.84;5046983;28;20021;-64
2022/04/28 06:34:06;;;;;;;24.67;14.60;;;;;;;6.91;76.08;102955.97;5046503;28;20027;-65
2022/04/28 06:36:31;;;;;;;27.50;17.35;;;;;;;6.74;78.17;102957.69;5046727;28;20376;-65
2022/04/28 06:38:57;;;;;;;29.48;15.65;;;;;;;6.97;76.78;102965.41;5047378;28;20024;-64
2022/04/28 06:41:22;;;;;;;33.75;18.10;;;;;;;7.01;76.76;102964.09;5046555;28;20067;-65
2022/04/28 06:43:47;;;;;;;25.20;11.13;;;;;;;7.37;74.75;102958.63;5047068;28;20067;-65
2022/04/28 06:46:12;;;;;;;27.50;16.13;;;;;;;7.35;76.24;102963.38;5046751;28;20021;-65
2022/04/28 06:48:38;;;;;;;28.23;16.50;;;;;;;7.44;75.24;102959.69;5045131;28;20037;-65
2022/04/28 06:51:03;;;;;;;31.83;14.25;;;;;;;7.65;74.22;102959.34;5046111;28;20029;-65
2022/04/28 06:53:28;;;;;;;26.67;14.23;;;;;;;7.92;73.68;102961.09;5046826;28;20032;-65
2022/04/28 06:55:54;;;;;;;32.53;16.30;;;;;;;8.25;72.98;102953.91;5047313;28;20037;-65
2022/04/28 06:58:21;;;;;;;32.53;16.65;;;;;;;8.49;73.52;102955.94;5046457;28;20612;-65
2022/04/28 07:00:48;;;;;;;30.27;14.07;;;;;;;8.64;70.86;102967.97;5046980;28;20123;-65
2022/04/28 07:03:13;;;;;;;32.40;15.80;;;;;;;8.80;71.08;102968.00;5045962;28;20029;-65
2022/04/28 07:05:39;;;;;;;18.85;11.73;;;;;;;9.07;69.51;102974.22;5047317;28;20122;-65
2022/04/28 07:08:04;;;;;;;21.77;12.25;;;;;;;9.01;67.24;102969.44;5047302;28;20108;-65
2022/04/28 07:10:30;;;;;;;27.30;12.45;;;;;;;9.02;68.33;102977.50;5046913;28;20032;-65
2022/04/28 07:12:55;;;;;;;33.08;15.32;;;;;;;9.03;68.89;102986.56;5047403;28;20482;-65
2022/04/28 07:15:20;;;;;;;28.85;14.27;;;;;;;9.16;67.91;102988.81;5046084;28;20093;-66
2022/04/28 07:17:46;;;;;;;43.35;15.98;;;;;;;9.23;67.63;102990.72;5045777;28;20044;-65
2022/04/28 07:20:11;;;;;;;29.35;12.45;;;;;;;9.48;66.52;102987.97;5042855;28;20501;-65
2022/04/28 07:22:36;;;;;;;32.08;14.38;;;;;;;9.53;66.50;102997.44;5044036;28;20120;-65
2022/04/28 07:25:02;;;;;;;24.70;11.82;;;;;;;9.95;65.79;103001.84;5043351;28;20029;-65
2022/04/28 07:27:27;;;;;;;23.38;12.90;;;;;;;10.15;65.22;102996.84;5043179;28;20512;-65
2022/04/28 07:29:53;;;;;;;21.48;10.82;;;;;;;10.24;62.71;102990.34;5043653;28;20038;-65
2022/04/28 07:32:18;;;;;;;25.98;14.32;;;;;;;9.82;64.57;102999.63;5041967;28;20319;-67
2022/04/28 07:34:43;;;;;;;28.23;13.68;;;;;;;10.22;63.64;102999.75;5043610;28;20029;-65
2022/04/28 07:37:08;;;;;;;19.15;9.07;;;;;;;10.33;61.43;102994.75;5043606;28;20358;-67
2022/04/28 07:39:34;;;;;;;22.92;9.23;;;;;;;10.30;62.01;103002.50;5043231;28;20025;-65
2022/04/28 07:41:59;;;;;;;39.22;16.15;;;;;;;10.22;63.97;103007.97;5043061;28;20057;-65
2022/04/28 07:44:24;;;;;;;28.05;14.65;;;;;;;10.20;62.32;102999.91;5043148;28;20098;-66
2022/04/28 07:46:50;;;;;;;19.40;9.38;;;;;;;10.20;63.58;103007.31;5043309;28;20039;-66
2022/04/28 07:49:15;;;;;;;22.35;8.98;;;;;;;10.51;60.66;103007.41;5041755;28;20036;-65
2022/04/28 07:51:41;;;;;;;29.65;14.90;;;;;;;10.12;63.93;103006.28;5042523;28;20068;-65
2022/04/28 07:54:06;;;;;;;29.08;15.25;;;;;;;10.19;63.26;103014.69;5043543;28;20017;-66
2022/04/28 07:56:31;;;;;;;33.17;15.48;;;;;;;10.17;64.64;103004.91;5042529;28;20045;-66
2022/04/28 07:58:56;;;;;;;30.60;15.40;;;;;;;10.30;63.57;103014.34;5042591;28;20395;-66
2022/04/28 08:01:22;;;;;;;34.15;15.90;;;;;;;10.52;65.34;103022.84;5042523;28;20221;-66
2022/04/28 08:03:47;;;;;;;21.27;10.02;;;;;;;10.74;60.96;103013.81;5041934;28;20106;-66
2022/04/28 08:06:13;;;;;;;30.15;15.02;;;;;;;10.62;60.39;103020.75;5041904;28;20033;-66
2022/04/28 08:08:39;;;;;;;29.27;15.77;;;;;;;10.51;60.87;103021.16;5043465;28;20078;-65
2022/04/28 08:11:04;;;;;;;30.08;15.02;;;;;;;10.39;63.77;103024.28;5041877;28;20135;-65
2022/04/28 08:13:30;;;;;;;30.25;14.95;;;;;;;10.56;61.62;103032.47;5042766;28;20013;-65
2022/04/28 08:15:57;;;;;;;27.20;14.32;;;;;;;10.48;62.53;103032.47;5042369;28;20036;-65
2022/04/28 08:18:22;;;;;;;28.83;15.77;;;;;;;10.58;63.84;103031.22;5041514;28;20017;-65
2022/04/28 08:20:48;;;;;;;34.30;15.38;;;;;;;10.75;64.11;103039.44;5041948;28;20043;-65
2022/04/28 08:23:13;;;;;;;32.25;15.10;;;;;;;10.99;62.80;103042.03;5042072;28;20025;-65
2022/04/28 08:25:39;;;;;;;26.42;14.52;;;;;;;11.11;61.22;103042.53;5042745;28;20453;-66
2022/04/28 08:28:04;;;;;;;22.33;13.85;;;;;;;11.23;60.79;103029.22;5042717;28;20032;-66
2022/04/28 08:30:30;;;;;;;26.92;12.30;;;;;;;11.39;58.71;103032.69;5040075;28;20034;-65
2022/04/28 08:32:55;;;;;;;21.13;11.52;;;;;;;11.32;58.44;103034.47;5040977;28;20185;-66
2022/04/28 08:35:21;;;;;;;18.98;10.15;;;;;;;11.23;59.21;103035.56;5041348;28;20029;-66
2022/04/28 08:37:46;;;;;;;23.60;12.15;;;;;;;11.27;57.68;103047.06;5042389;28;20017;-66
2022/04/28 08:40:11;;;;;;;24.95;14.05;;;;;;;11.27;60.19;103042.41;5041404;28;20237;-66
2022/04/28 08:42:38;;;;;;;27.10;13.25;;;;;;;11.43;58.03;103042.31;5042396;28;20400;-66
2022/04/28 08:45:04;;;;;;;23.75;12.50;;;;;;;11.53;56.55;103044.81;5042618;28;20398;-66
2022/04/28 08:47:31;;;;;;;23.75;11.57;;;;;;;11.49;56.34;103037.97;5039634;28;20075;-66
2022/04/28 08:49:56;;;;;;;22.60;13.25;;;;;;;11.72;58.26;103037.13;5041659;28;20128;-66
2022/04/28 08:52:21;;;;;;;25.30;12.50;;;;;;;11.88;57.58;103039.75;5041461;28;20112;-66
2022/04/28 08:54:47;;;;;;;24.08;12.18;;;;;;;11.90;56.33;103037.66;5041957;28;20527;-66
2022/04/28 08:57:13;;;;;;;23.83;11.80;;;;;;;12.07;55.30;103035.63;5041210;28;20025;-67
2022/04/28 08:59:39;;;;;;;23.80;11.63;;;;;;;12.24;55.50;103037.16;5042120;28;20105;-66
2022/04/28 09:02:04;;;;;;;21.75;10.32;;;;;;;12.63;54.41;103036.03;5040939;28;20123;-66
2022/04/28 09:04:30;;;;;;;18.25;10.52;;;;;;;13.61;50.42;103040.19;5041369;28;20028;-66
2022/04/28 09:06:56;;;;;;;17.67;8.00;;;;;;;15.34;46.14;103029.16;5040870;28;20017;-66
2022/04/28 09:09:23;;;;;;;17.65;9.20;;;;;;;16.66;42.33;103033.00;5041479;28;20360;-66
2022/04/28 09:11:50;;;;;;;14.18;9.20;;;;;;;17.70;40.84;103042.97;5039952;28;20442;-66
2022/04/28 09:14:22;;;;;;;19.35;8.90;;;;;;;19.27;38.46;103037.94;5040701;28;20060;-66
2022/04/28 09:17:02;;;;;;;19.80;8.98;;;;;;;19.98;35.90;103033.44;5040999;28;20204;-66
2022/04/28 09:19:35;;;;;;;17.70;8.68;;;;;;;20.38;34.83;103020.47;5041120;28;20071;-67
2022/04/28 09:22:09;;;;;;;18.15;9.20;;;;;;;21.54;35.31;103023.16;5040901;28;20028;-66
2022/04/28 09:24:37;;;;;;;16.85;8.43;;;;;;;22.34;31.59;103024.81;5041630;28;20025;-67
2022/04/28 09:27:03;;;;;;;19.60;9.32;;;;;;;23.07;30.36;103030.31;5041255;28;20032;-67
2022/04/28 09:29:30;;;;;;;21.27;10.13;;;;;;;23.98;29.92;103027.63;5039436;28;20082;-67
2022/04/28 09:31:56;;;;;;;16.42;8.88;;;;;;;24.58;27.72;103030.03;5040356;28;20381;-67
2022/04/28 09:34:23;;;;;;;21.17;9.73;;;;;;;24.75;27.07;103026.16;5040733;28;20029;-67
2022/04/28 09:36:50;;;;;;;16.20;8.95;;;;;;;24.62;26.39;103030.31;5040665;28;20053;-67
2022/04/28 09:44:53;;;;;;;20.85;10.45;;;;;;;25.08;26.50;103024.91;5020956;28;20044;-67
2022/04/28 09:47:19;;;;;;;24.83;11.65;;;;;;;25.69;25.67;103019.41;5017728;28;20037;-67
2022/04/28 09:49:58;;;;;;;18.73;10.95;;;;;;;25.60;26.21;103019.13;5021665;28;20021;-67
2022/04/28 09:52:26;;;;;;;23.45;10.05;;;;;;;25.77;25.57;103018.03;5021437;28;20024;-67
2022/04/28 09:54:52;;;;;;;;;;;;;;;25.82;28.11;103016.06;5027567;28;20546;-66
2022/04/28 09:57:20;;;;;;;26.45;11.70;;;;;;;24.75;25.82;103014.94;5034576;28;19928;-66
2022/04/28 09:59:47;;;;;;;29.00;11.98;;;;;;;24.89;25.91;103020.88;5027451;28;20565;-66
2022/04/28 10:02:16;;;;;;;22.58;12.10;;;;;;;25.42;27.53;103010.38;5029577;28;20080;-66
2022/04/28 10:04:42;;;;;;;30.27;12.90;;;;;;;25.46;25.76;103011.50;5031454;28;20365;-66
2022/04/28 10:07:09;;;;;;;28.17;12.18;;;;;;;24.71;26.67;103005.34;5033930;28;20028;-66
2022/04/28 10:09:36;;;;;;;17.30;10.20;;;;;;;22.98;28.23;103010.31;5035161;28;20108;-66
2022/04/28 10:12:03;;;;;;;23.50;12.20;;;;;;;23.24;28.57;103006.69;5039301;28;20037;-66
2022/04/28 10:14:29;;;;;;;16.75;11.93;;;;;;;24.36;28.11;102998.41;5030650;28;20448;-66
2022/04/28 10:16:57;;;;;;;27.70;12.93;;;;;;;24.52;26.73;102994.56;5033171;28;20075;-66
2022/04/28 10:19:27;;;;;;;24.45;12.43;;;;;;;23.80;30.12;102995.19;5029906;28;20061;-66
2022/04/28 10:22:02;;;;;;;20.52;12.05;;;;;;;23.81;27.55;102997.72;5034616;28;20029;-66
2022/04/28 10:33:19;;;;;;;31.08;12.98;;;;;;;26.22;25.64;102988.16;5012861;28;20053;-66
2022/04/28 10:35:48;;;;;;;21.88;11.82;;;;;;;26.65;24.22;102984.66;5026417;28;20064;-66
2022/04/28 10:38:31;;;;;;;19.85;11.57;;;;;;;24.77;26.27;102993.84;5034250;28;20051;-66
2022/04/28 10:41:02;;;;;;;22.45;12.00;;;;;;;24.87;28.18;102987.41;5042355;28;20032;-65
2022/04/28 10:43:34;;;;;;;23.73;12.88;;;;;;;25.65;26.29;102981.72;5041668;28;20025;-68
2022/04/28 10:46:08;;;;;;;22.35;12.90;;;;;;;26.65;25.01;102981.00;5041787;28;20633;-67
2022/04/28 10:48:35;;;;;;;18.58;11.02;;;;;;;27.06;23.60;102977.97;5036723;28;20170;-66
2022/04/28 10:51:10;;;;;;;21.17;12.38;;;;;;;25.88;24.37;102974.69;5041731;28;20585;-67
2022/04/28 10:53:54;;;;;;;18.42;12.43;;;;;;;25.13;26.24;102971.50;5042907;28;20082;-67
2022/04/28 10:56:19;;;;;;;20.67;12.10;;;;;;;25.61;26.89;102969.31;5042334;28;20045;-66
2022/04/28 10:58:45;;;;;;;21.53;10.50;;;;;;;26.04;24.19;102972.69;5045289;28;20036;-66
2022/04/28 11:01:33;;;;;;;20.45;12.25;;;;;;;25.54;27.15;102963.09;5043274;28;20318;-67
2022/04/28 11:04:01;;;;;;;23.25;12.95;;;;;;;24.90;29.60;102966.34;5044307;28;20025;-67
2022/04/28 11:06:30;;;;;;;25.40;12.30;;;;;;;24.66;30.05;102974.41;5043534;28;20029;-67
2022/04/28 11:08:57;;;;;;;20.83;13.00;;;;;;;23.57;29.79;102965.50;5039268;28;20052;-67
2022/04/28 11:11:41;;;;;;;21.50;14.13;;;;;;;22.53;30.76;102964.59;5035390;28;20052;-67
2022/04/28 11:14:08;;;;;;;24.05;13.73;;;;;;;21.65;32.06;102968.31;5033781;28;20028;-67
2022/04/28 11:16:34;;;;;;;26.60;14.13;;;;;;;20.93;32.05;102960.50;5037075;28;20511;-66
2022/04/28 11:18:59;;;;;;;22.63;14.40;;;;;;;20.59;36.56;102963.16;5042634;28;20795;-67
2022/04/28 11:21:25;;;;;;;21.00;14.43;;;;;;;20.26;36.80;102960.16;5042821;28;20033;-67
2022/04/28 11:23:51;;;;;;;26.80;14.67;;;;;;;19.76;35.99;102967.06;5044779;28;20166;-67
2022/04/28 11:26:18;;;;;;;25.55;14.73;;;;;;;19.80;34.82;102961.88;5038010;28;20376;-67
2022/04/28 11:28:43;;;;;;;21.05;14.07;;;;;;;20.05;37.23;102965.25;5044900;28;20083;-67
2022/04/28 11:31:14;;;;;;;21.60;14.90;;;;;;;19.74;36.41;102957.25;5045138;28;20112;-67
2022/04/28 11:33:42;;;;;;;23.45;14.88;;;;;;;19.61;35.37;102958.31;5044469;28;20410;-68
2022/04/28 11:36:23;;;;;;;24.63;14.73;;;;;;;19.79;35.35;102952.66;5043779;28;20059;-68
2022/04/28 11:38:56;;;;;;;24.10;15.93;;;;;;;19.89;37.11;102954.84;5034732;28;20032;-67
2022/04/28 11:41:24;;;;;;;25.30;15.10;;;;;;;19.77;36.41;102954.84;5038853;28;20048;-67
2022/04/28 11:43:50;;;;;;;36.70;15.43;;;;;;;19.65;39.20;102953.97;5038606;28;20032;-67
2022/04/28 11:46:16;;;;;;;22.83;14.25;;;;;;;19.55;36.55;102957.31;5038069;28;20033;-67